createdAt,value
2019-02-07T00:04:36.067Z,-0.26
2019-02-07T00:09:38.172Z,0.13
2019-02-07T00:14:40.124Z,0.01
2019-02-07T00:19:42.277Z,0.01
2019-02-07T00:24:44.530Z,0.04
2019-02-07T00:29:46.438Z,-0.06
2019-02-07T00:34:48.448Z,-0.06
2019-02-07T00:39:50.435Z,-0.12
2019-02-07T00:44:52.678Z,-0.03
2019-02-07T00:49:55.885Z,0.09
2019-02-07T00:54:57.818Z,0.04
2019-02-07T00:59:59.664Z,0.01
2019-02-07T01:05:01.784Z,-0.22
2019-02-07T01:10:05.843Z,-0.32
2019-02-07T01:15:09.466Z,-0.04
2019-02-07T01:20:12.888Z,-0.27
2019-02-07T01:25:17.536Z,-0.19
2019-02-07T01:30:20.321Z,-0.33
2019-02-07T01:35:22.436Z,-0.29
2019-02-07T01:40:24.977Z,-0.26
2019-02-07T01:45:26.967Z,-0.24
2019-02-07T01:50:30.193Z,-0.11
2019-02-07T01:55:32.121Z,-0.23
2019-02-07T02:00:34.228Z,-0.22
2019-02-07T02:05:36.138Z,-0.28
2019-02-07T02:10:39.127Z,-0.43
2019-02-07T02:15:41.339Z,-0.27
2019-02-07T02:20:43.360Z,-0.10
2019-02-07T02:25:45.423Z,-0.03
2019-02-07T02:30:47.427Z,-0.05
2019-02-07T02:35:50.070Z,-0.18
2019-02-07T02:40:52.011Z,-0.24
2019-02-07T02:45:54.289Z,-0.25
2019-02-07T02:50:57.443Z,-0.28
2019-02-07T02:56:01.358Z,-0.35
2019-02-07T03:01:26.194Z,-0.23
2019-02-07T03:06:48.017Z,-0.37
2019-02-07T03:12:14.356Z,-0.30
2019-02-07T03:17:35.526Z,-0.13
2019-02-07T03:22:56.516Z,-0.31
2019-02-07T03:28:18.120Z,-0.39
2019-02-07T03:33:36.199Z,-0.45
2019-02-07T03:39:00.659Z,-0.45
2019-02-07T03:44:22.585Z,-0.52
2019-02-07T03:49:50.023Z,-0.47
2019-02-07T03:55:02.463Z,-0.53
2019-02-07T04:00:18.059Z,-0.54
2019-02-07T04:05:39.942Z,-0.34
2019-02-07T04:11:12.410Z,-0.32
2019-02-07T04:16:23.578Z,-0.35
2019-02-07T04:21:40.206Z,-0.40
2019-02-07T04:26:58.897Z,-0.27
2019-02-07T04:32:18.970Z,-0.36
2019-02-07T04:37:38.963Z,-0.32
2019-02-07T04:42:50.599Z,-0.31
2019-02-07T04:48:02.392Z,-0.27
2019-02-07T04:53:32.967Z,-0.20
2019-02-07T04:58:53.070Z,-0.21
2019-02-07T05:04:10.577Z,-0.07
2019-02-07T05:09:30.757Z,-0.11
2019-02-07T05:15:10.366Z,0.01
2019-02-07T05:20:39.150Z,0.11
2019-02-07T05:25:59.487Z,0.31
2019-02-07T05:31:17.322Z,0.58
2019-02-07T05:36:44.441Z,0.86
2019-02-07T05:42:04.896Z,1.10
2019-02-07T05:47:26.595Z,1.12
2019-02-07T05:52:52.661Z,0.99
2019-02-07T05:58:17.284Z,0.99
2019-02-07T06:03:33.283Z,1.03
2019-02-07T06:08:57.743Z,0.94
2019-02-07T06:14:18.238Z,1.00
2019-02-07T06:19:30.625Z,0.98
2019-02-07T06:24:55.287Z,1.01
2019-02-07T06:30:13.820Z,1.06
2019-02-07T06:35:27.788Z,1.05
2019-02-07T06:40:55.472Z,1.09
2019-02-07T06:46:05.130Z,1.14
2019-02-07T06:51:38.850Z,1.11
2019-02-07T06:57:18.997Z,1.22
2019-02-07T07:03:05.151Z,1.25
2019-02-07T07:08:26.537Z,1.13
2019-02-07T07:13:51.329Z,1.17
2019-02-07T07:19:29.355Z,1.25
2019-02-07T07:24:51.288Z,1.08
2019-02-07T07:30:01.608Z,1.06
2019-02-07T07:35:32.539Z,1.09
2019-02-07T07:40:54.144Z,1.12
2019-02-07T07:46:12.341Z,1.21
2019-02-07T07:51:40.151Z,1.30
2019-02-07T07:56:51.362Z,1.45
2019-02-07T08:02:18.488Z,1.47
2019-02-07T08:07:40.483Z,1.65
2019-02-07T08:12:55.414Z,1.68
2019-02-07T08:18:13.059Z,1.86
2019-02-07T08:23:25.499Z,1.82
2019-02-07T08:28:35.994Z,1.97
2019-02-07T08:34:00.814Z,2.00
2019-02-07T08:39:23.151Z,2.09
2019-02-07T08:44:49.599Z,2.23
2019-02-07T08:50:36.797Z,2.21
2019-02-07T08:55:57.933Z,2.17
2019-02-07T09:01:37.951Z,2.34
2019-02-07T09:07:11.939Z,2.48
2019-02-07T09:12:39.959Z,2.63
2019-02-07T09:17:52.587Z,2.73
2019-02-07T09:23:05.310Z,2.82
2019-02-07T09:28:14.558Z,2.93
2019-02-07T09:33:35.284Z,2.97
2019-02-07T09:38:56.423Z,3.00
2019-02-07T09:44:24.185Z,3.04
2019-02-07T09:49:34.981Z,2.99
2019-02-07T09:54:52.205Z,3.04
2019-02-07T10:00:12.540Z,3.24
2019-02-07T10:05:40.010Z,3.43
2019-02-07T10:11:00.245Z,3.52
2019-02-07T10:16:25.062Z,3.80
2019-02-07T10:21:50.022Z,3.84
2019-02-07T10:27:14.636Z,4.16
2019-02-07T10:32:35.043Z,4.55
2019-02-07T10:37:50.130Z,4.58
2019-02-07T10:43:11.489Z,4.53
2019-02-07T10:48:27.758Z,5.00
2019-02-07T10:53:50.232Z,5.02
2019-02-07T10:59:11.913Z,4.97
2019-02-07T11:04:33.804Z,4.85
2019-02-07T11:09:58.364Z,4.64
2019-02-07T11:15:08.337Z,4.62
2019-02-07T11:20:38.990Z,4.88
2019-02-07T11:26:16.571Z,4.90
2019-02-07T11:31:30.398Z,4.78
2019-02-07T11:36:54.116Z,5.17
2019-02-07T11:42:10.114Z,5.14
2019-02-07T11:47:31.945Z,5.41
2019-02-07T11:52:42.605Z,5.29
2019-02-07T11:58:01.434Z,5.50
2019-02-07T12:03:29.190Z,5.91
2019-02-07T12:08:49.521Z,6.02
2019-02-07T12:14:07.262Z,5.94
2019-02-07T12:19:27.625Z,5.53
2019-02-07T12:24:49.225Z,5.36
2019-02-07T12:30:23.309Z,5.31
2019-02-07T12:35:43.730Z,5.28
2019-02-07T12:41:08.198Z,5.11
2019-02-07T12:46:38.677Z,4.89
2019-02-07T12:51:59.495Z,4.82
2019-02-07T12:57:19.883Z,4.56
2019-02-07T13:02:39.692Z,4.49
2019-02-07T13:08:11.583Z,4.54
2019-02-07T13:13:21.540Z,4.63
2019-02-07T13:18:30.204Z,4.85
2019-02-07T13:23:59.446Z,4.75
2019-02-07T13:29:20.774Z,4.70
2019-02-07T13:34:34.883Z,4.69
2019-02-07T13:39:58.149Z,4.69
2019-02-07T13:45:19.476Z,4.84
2019-02-07T13:50:39.935Z,4.67
2019-02-07T13:55:54.164Z,4.54
2019-02-07T14:01:34.244Z,4.55
2019-02-07T14:06:54.572Z,4.53
2019-02-07T14:12:10.047Z,4.53
2019-02-07T14:17:26.315Z,4.64
2019-02-07T14:22:37.435Z,4.78
2019-02-07T14:27:58.345Z,4.46
2019-02-07T14:33:23.698Z,4.52
2019-02-07T14:38:50.536Z,4.43
2019-02-07T14:44:13.826Z,4.65
2019-02-07T14:49:15.902Z,4.69
2019-02-07T14:54:17.998Z,4.76
2019-02-07T14:59:21.538Z,4.76
2019-02-07T15:04:23.528Z,4.82
2019-02-07T15:09:26.008Z,4.90
2019-02-07T15:14:28.010Z,5.06
2019-02-07T15:19:30.026Z,4.94
2019-02-07T15:24:31.957Z,5.04
2019-02-07T15:29:34.287Z,4.93
2019-02-07T15:34:36.379Z,5.11
2019-02-07T15:39:38.521Z,5.98
2019-02-07T15:44:40.567Z,6.12
2019-02-07T15:49:43.101Z,5.31
2019-02-07T15:54:45.091Z,5.23
2019-02-07T15:59:51.605Z,5.17
2019-02-07T16:04:54.601Z,5.14
2019-02-07T16:09:56.596Z,4.89
2019-02-07T16:14:58.995Z,4.87
2019-02-07T16:20:01.078Z,4.71
2019-02-07T16:25:05.715Z,4.75
2019-02-07T16:30:11.542Z,4.67
2019-02-07T16:35:15.748Z,4.70
2019-02-07T16:40:18.637Z,4.59
2019-02-07T16:45:21.208Z,4.59
2019-02-07T16:50:23.417Z,4.45
2019-02-07T16:55:25.610Z,4.45
2019-02-07T17:00:41.064Z,4.40
2019-02-07T17:05:43.153Z,4.31
2019-02-07T17:10:45.301Z,4.39
2019-02-07T17:15:48.716Z,4.35
2019-02-07T17:20:51.070Z,4.33
2019-02-07T17:25:52.954Z,4.26
2019-02-07T17:30:55.365Z,4.20
2019-02-07T17:35:57.471Z,4.19
2019-02-07T17:40:59.464Z,4.04
2019-02-07T17:46:01.690Z,4.16
2019-02-07T17:51:04.798Z,4.09
2019-02-07T17:56:07.401Z,4.06
2019-02-07T18:01:09.819Z,4.14
2019-02-07T18:06:12.010Z,4.01
2019-02-07T18:11:13.918Z,3.97
2019-02-07T18:16:15.804Z,3.98
2019-02-07T18:21:17.721Z,3.99
2019-02-07T18:26:19.676Z,3.93
2019-02-07T18:31:21.584Z,3.90
2019-02-07T18:36:23.777Z,3.91
2019-02-07T18:41:26.001Z,3.79
2019-02-07T18:46:29.049Z,3.85
2019-02-07T18:51:31.204Z,3.71
2019-02-07T18:56:33.104Z,3.65
2019-02-07T19:01:35.012Z,3.52
2019-02-07T19:06:36.900Z,3.48
2019-02-07T19:11:38.844Z,3.55
2019-02-07T19:16:41.062Z,3.27
2019-02-07T19:21:43.000Z,3.44
2019-02-07T19:26:44.941Z,3.31
2019-02-07T19:31:46.844Z,3.23
2019-02-07T19:36:48.930Z,3.16
2019-02-07T19:41:50.956Z,3.14
2019-02-07T19:46:52.851Z,3.12
2019-02-07T19:51:54.877Z,2.86
2019-02-07T19:56:56.911Z,2.71
2019-02-07T20:01:58.818Z,2.86
2019-02-07T20:07:00.700Z,2.86
2019-02-07T20:12:03.358Z,2.96
2019-02-07T20:17:06.673Z,2.85
2019-02-07T20:22:19.790Z,3.02
2019-02-07T20:27:13.268Z,2.80
2019-02-07T20:32:15.192Z,2.88
2019-02-07T20:37:17.128Z,2.75
2019-02-07T20:42:19.027Z,2.73
2019-02-07T20:47:21.020Z,2.73
2019-02-07T20:52:27.254Z,2.73
2019-02-07T20:57:26.739Z,2.71
2019-02-07T21:02:28.671Z,2.84
2019-02-07T21:07:30.602Z,2.75
2019-02-07T21:12:32.596Z,2.70
2019-02-07T21:17:34.604Z,2.64
2019-02-07T21:22:36.970Z,2.64
2019-02-07T21:27:38.978Z,2.78
2019-02-07T21:32:41.054Z,2.69
2019-02-07T21:37:43.274Z,2.65
2019-02-07T21:42:45.379Z,2.52
2019-02-07T21:47:47.410Z,2.37
2019-02-07T21:52:49.527Z,2.35
2019-02-07T21:57:51.730Z,2.44
2019-02-07T22:02:54.520Z,2.41
2019-02-07T22:07:56.727Z,2.27
2019-02-07T22:12:58.647Z,2.38
2019-02-07T22:18:01.063Z,2.39
2019-02-07T22:23:03.701Z,2.26
2019-02-07T22:28:06.433Z,2.25
2019-02-07T22:33:08.544Z,2.18
2019-02-07T22:38:10.531Z,2.18
2019-02-07T22:43:12.464Z,2.10
2019-02-07T22:48:14.379Z,2.06
2019-02-07T22:53:16.341Z,2.13
2019-02-07T22:58:37.205Z,2.19
2019-02-07T23:03:44.242Z,2.24
2019-02-07T23:08:47.787Z,2.25
2019-02-07T23:13:49.992Z,2.25
2019-02-07T23:18:52.310Z,2.43
2019-02-07T23:23:54.251Z,2.48
2019-02-07T23:28:56.293Z,2.54
2019-02-07T23:33:58.713Z,2.52
2019-02-07T23:39:00.572Z,2.40
2019-02-07T23:44:04.168Z,2.44
2019-02-07T23:49:07.083Z,2.60
2019-02-07T23:54:09.201Z,2.61
2019-02-07T23:59:11.141Z,2.55
